Great Falls International Airport
KGTF : now visible

Airfield :











YOU CAN JOIN US ON...

 
LOGIN :

Register | Disclaimer

   EN    FR    IT 

 









Legend :    VFR   Marginal VFR   IFR   Intensive IFR   Very Intensive IFR
Visi :
Ceiling :
>= 8 km
>= 3000ft
5 to 8 km
1000 to 3000 ft
1500m to 5 km
500 to 1000 ft
800 to 1500m
200 to 500 ft
< 800m
< 200 ft
Symbols :   Thunderstorms  Fog  Heavy snow  Heavy precipitations  Wind > 20 kt






- Airport Elevation : 3680 ft
- IATA code : GTF


KGTF - Great Falls International

CURRENT METAR :
  • 142153Z 23012KT 10SM CLR 12/M03 A3000 RMK AO2 SLP178 T01171033

EXPIRED METARs :
  • 142053Z 23013KT 10SM CLR 10/M03 A3002 RMK AO2 SLP193 T01001028 56020
  • 141953Z 22013KT 10SM CLR 10/M02 A3004 RMK AO2 SLP194 T01001017
  • 141853Z 21010KT 10SM CLR 07/M02 A3007 RMK AO2 SLP214 T00721017

TAF KGTF
Valid from the 14 at 18:00 until the 15 at 18:00 UTC


141735Z 1418/1518 VRB05KT P6SM FEW150 SCT250
FM150100 19008KT P6SM FEW150 SCT250
FM150900 21010KT P6SM SCT150 BKN250
FM151500 21010G20KT P6SM BKN080 OVC150



MET'MAP, your aeronautical weather chart ! - Copyright ORBIFLY December 2007 - Disclaimer

ORBIFLY MET'MAP TEAM :

Programming & Development : Alexandra Zaïnal
Concept & Development : Baudouin d'Aumeries
Co-Development & Prog : Marc-Olivier Méhu
Technical & hardware support : Manuel Goepfert

Contact : metmap@orbifly.com




SOURCES & CREDITS :

   NOAA       Earth
Advisory